McKinley Park, Alaska
Current Conditions -  °F | °C
As of 1:36 PM on Tuesday 21 Oct 2014 (Local Time) from PAIN Reporting Station
Clear Clear  
Wind Chill: 30°   Ceiling: Unl
Heat Index: 30°   Visibility: 10mi
Dew Point: 23°   Wind: 0mph
Humidity: 75%   Direction: NA
Pressure: 29.36"   Gusts: NA
Location:  63.73°N, 148.91°W
Report Text: PAIN 212136Z AUTO 00000KT 10SM CLR M01/M05 A2936 RMK AO1
Loading
Personal Weather Stations






























Interactive Weather Map
Tropical Storm Tracking
New forecast layout! Learn more

10-Day Weather Forecast

Advertisements
Track Severe Weather on mobile